Flight Track Log - Related Links

Times and Time Zones

All times are in EDT time to prevent confusion due to time zone crossing. See the THY2453 flight status page for this flight to view local times or setup timezone preferences in your user account.

Time Position Orientation Groundspeed Altitude Reporting Facility
EDT Latitude Longitude Course Direction KTS MPH feet Rate Location/Type
Sun 11:58:00 PM 37.5312 34.4658 311° West  Level Estimated
Sun 11:59:00 PM 37.5919 34.3745 310° West  Level Estimated
Mon 12:00:00 AM 37.6525 34.2831 310° West  Level Estimated
Mon 12:01:00 AM 37.7130 34.1916 310° West  Level Estimated
Mon 12:02:00 AM 37.7734 34.0999 310° West  Level Estimated
Mon 12:03:00 AM 37.8338 34.0080 310° West  Level Estimated
Mon 12:04:00 AM 37.8941 33.9160 310° West  Level Estimated
Mon 12:05:00 AM 37.9543 33.8239 310° West  Level Estimated
Mon 12:06:00 AM 38.0145 33.7316 310° West  Level Estimated
Mon 12:07:00 AM 38.0746 33.6391 310° West  Level Estimated
Mon 12:08:00 AM 38.1346 33.5465 310° West  Level Estimated
Mon 12:09:00 AM 38.1945 33.4538 309° West  Level Estimated
Mon 12:10:00 AM 38.2544 33.3609 309° West  Level Estimated
Mon 12:11:00 AM 38.3142 33.2678 309° West  Level Estimated
Mon 12:12:00 AM 38.3739 33.1746 309° West  Level Estimated
Mon 12:13:00 AM 38.4336 33.0812 309° West  Level Estimated
Mon 12:14:00 AM 38.4931 32.9877 309° West  Level Estimated
Mon 12:15:00 AM 38.5526 32.8940 309° West  Level Estimated
Mon 12:16:00 AM 38.6120 32.8002 309° West  Level Estimated
Mon 12:17:00 AM 38.6714 32.7062 309° West  Level Estimated
Mon 12:18:00 AM 38.7307 32.6121 309° West  Level Estimated
Mon 12:19:00 AM 38.7899 32.5178 309° West  Level Estimated
Mon 12:20:00 AM 38.8490 32.4233 309° West  Level Estimated
Mon 12:21:00 AM 38.9080 32.3287 309° West  Level Estimated
Mon 12:22:00 AM 38.9670 32.2339 309° West  Level Estimated
Mon 12:23:00 AM 39.0259 32.1390 309° West  Level Estimated
Mon 12:24:00 AM 39.0847 32.0439 309° West  Level Estimated
Mon 12:25:00 AM 39.1435 31.9487 309° West  Level Estimated
Mon 12:26:00 AM 39.2021 31.8533 308° West  Level Estimated
Mon 12:27:00 AM 39.2607 31.7577 308° West  Level Estimated
Mon 12:28:00 AM 39.3192 31.6620 308° West  Level Estimated
Mon 12:29:00 AM 39.3776 31.5661 308° West  Level Estimated
Mon 12:30:00 AM 39.4360 31.4701 308° West  Level Estimated
Mon 12:31:00 AM 39.4942 31.3738 308° West  Level Estimated
Mon 12:32:00 AM 39.5524 31.2775 308° West  Level Estimated
Mon 12:33:00 AM 39.6105 31.1809 308° West  Level Estimated
Mon 12:34:00 AM 39.6686 31.0842 308° West  Level Estimated
Mon 12:35:00 AM 39.7265 30.9874 308° West  Level Estimated
Mon 12:36:00 AM 39.7844 30.8904 308° West  Level Estimated
Mon 12:37:00 AM 39.8422 30.7932 308° West  Level Estimated
Mon 12:38:00 AM 39.8999 30.6959 308° West  Level Estimated
Mon 12:39:00 AM 39.9575 30.5984 308° West  Level Estimated
Mon 12:40:00 AM 40.0150 30.5007 308° West  Level Estimated
Mon 12:41:00 AM 40.0725 30.4028 308° West  Level Estimated
Mon 12:42:00 AM 40.1299 30.3048 307° West  Level Estimated
Mon 12:43:00 AM 40.1872 30.2067 307° West  Level Estimated
Mon 12:44:00 AM 40.2444 30.1083 307° West  Level Estimated
Mon 12:45:00 AM 40.3015 30.0098 307° West  Level Estimated
Mon 12:46:00 AM 40.3586 29.9112 307° West  Level Estimated
Mon 12:47:00 AM 40.4155 29.8123 307° West  Level Estimated
Mon 12:48:00 AM 40.4724 29.7134 307° West  Level Estimated
Mon 12:49:00 AM 40.5292 29.6142 307° West  Level Estimated
Mon 12:50:00 AM 40.5859 29.5149 307° West  Level Estimated
Mon 12:51:00 AM 40.6425 29.4153 307° West  Level Estimated
Mon 12:52:00 AM 40.6991 29.3157 307° West  Level Estimated
Mon 12:53:00 AM 40.7555 29.2158 307° West  Level Estimated
Mon 12:54:00 AM 40.8119 29.1158 307° West  Level Estimated
Mon 12:55:00 AM 40.8681 29.0156 307° West  Level Estimated
Mon 12:56:00 AM 40.9243 28.9153 307° West  Level Estimated
Mon 12:57:00 AM 40.9769 28.8211 306° West  Level Estimated
Mon 12:58:00 AM 40.9769 28.8211 21° North  Level Estimated
Mon 12:59:00 AM 40.9769 28.8211 21° North  Level Estimated
Mon 01:00:00 AM 40.9769 28.8211 21° North  Level Estimated
Mon 01:01:00 AM 40.9769 28.8211 21° North  Level Estimated
Mon 01:02:00 AM 40.9769 28.8211 21° North  Level Estimated
Mon 01:03:00 AM 40.9769 28.8211 21° North  Level Estimated
Mon 01:04:00 AM 40.9769 28.8211 21° North  Level Estimated
Mon 01:05:00 AM 40.9769 28.8211 21° North  Level Estimated
Mon 01:06:00 AM 40.9769 28.8211 21° North  Level Estimated
Mon 01:07:00 AM 40.9769 28.8211 21° North  Level Estimated
Mon 01:08:00 AM 40.9769 28.8211 21° North  Level Estimated
Mon 01:09:00 AM 40.9769 28.8211 21° North  Level Estimated
Mon 01:10:00 AM 40.9769 28.8211 21° North  Level Estimated
Mon 01:11:00 AM 40.9769 28.8211 21° North  Level Estimated
Mon 01:12:00 AM 40.9769 28.8211 21° North  Level Estimated
Mon 01:13:00 AM 40.9769 28.8211 21° North  Level Estimated

Login

Don't have an account? Register now (free) for customized features, flight alerts, and more!